Terminal Aerodrome Forecast
Issued by NWS Dallas/Fort Worth, TX

Home | Current Version | Previous Version | Text Only | Print | Product List | Glossary On
Versions: 1 2 3 4 5 6 7 8 9 10 11 12 13 14 15 16 17 18 19 20 21 22 23 24 25 26 27
000
FTUS44 KFWD 240733 AAA
TAFACT
TAF AMD
KACT 240733Z 2408/2506 17022G32KT P6SM BKN022 BKN250
      TEMPO 2409/2410 BKN018 BKN250
     FM241100 19018KT P6SM VCSH OVC025
     FM241700 22018G28KT P6SM BKN035
     FM242300 20018KT P6SM SCT250=

USA.gov is the U.S. government's official web portal to all federal, state and local government web resources and services.